sensor_id;sensor_type;location;lat;lon;timestamp;temperature;humidity
65044;DHT22;51617;48.158;16.464;2023-04-29T00:01:04;15.20;99.90
65044;DHT22;51617;48.158;16.464;2023-04-29T00:03:30;15.20;99.90
65044;DHT22;51617;48.158;16.464;2023-04-29T00:05:57;15.10;99.90
65044;DHT22;51617;48.158;16.464;2023-04-29T00:08:22;15.10;99.90
65044;DHT22;51617;48.158;16.464;2023-04-29T00:10:48;15.00;99.90
65044;DHT22;51617;48.158;16.464;2023-04-29T00:13:14;15.00;99.90
65044;DHT22;51617;48.158;16.464;2023-04-29T00:15:40;15.10;99.90
65044;DHT22;51617;48.158;16.464;2023-04-29T00:18:05;15.10;99.90
65044;DHT22;51617;48.158;16.464;2023-04-29T00:20:31;15.00;99.90
65044;DHT22;51617;48.158;16.464;2023-04-29T00:22:57;15.00;99.90
65044;DHT22;51617;48.158;16.464;2023-04-29T00:25:22;14.90;99.90
65044;DHT22;51617;48.158;16.464;2023-04-29T00:27:48;14.90;99.90
65044;DHT22;51617;48.158;16.464;2023-04-29T00:30:13;14.80;99.90
65044;DHT22;51617;48.158;16.464;2023-04-29T00:32:39;14.90;99.90
65044;DHT22;51617;48.158;16.464;2023-04-29T00:35:05;14.90;99.90
65044;DHT22;51617;48.158;16.464;2023-04-29T00:37:31;14.80;99.90
65044;DHT22;51617;48.158;16.464;2023-04-29T00:39:57;14.70;99.90
65044;DHT22;51617;48.158;16.464;2023-04-29T00:42:24;14.60;99.90
65044;DHT22;51617;48.158;16.464;2023-04-29T00:44:49;14.50;99.90
65044;DHT22;51617;48.158;16.464;2023-04-29T00:47:15;14.50;99.90
65044;DHT22;51617;48.158;16.464;2023-04-29T00:49:41;14.50;99.90
65044;DHT22;51617;48.158;16.464;2023-04-29T00:52:07;14.40;99.90
65044;DHT22;51617;48.158;16.464;2023-04-29T00:54:34;14.40;99.90
65044;DHT22;51617;48.158;16.464;2023-04-29T00:57:01;14.40;99.90
65044;DHT22;51617;48.158;16.464;2023-04-29T00:59:28;14.40;99.90
65044;DHT22;51617;48.158;16.464;2023-04-29T01:02:00;14.40;99.90
65044;DHT22;51617;48.158;16.464;2023-04-29T01:04:26;14.40;99.90
65044;DHT22;51617;48.158;16.464;2023-04-29T01:11:52;14.30;99.90
65044;DHT22;51617;48.158;16.464;2023-04-29T01:14:19;14.20;99.90
65044;DHT22;51617;48.158;16.464;2023-04-29T01:16:52;14.20;99.90
65044;DHT22;51617;48.158;16.464;2023-04-29T01:21:46;14.10;99.90
65044;DHT22;51617;48.158;16.464;2023-04-29T01:24:13;14.10;99.90
65044;DHT22;51617;48.158;16.464;2023-04-29T01:26:39;14.10;99.90
65044;DHT22;51617;48.158;16.464;2023-04-29T01:31:40;13.90;99.90
65044;DHT22;51617;48.158;16.464;2023-04-29T01:34:10;14.00;99.90
65044;DHT22;51617;48.158;16.464;2023-04-29T01:41:50;13.90;99.90
65044;DHT22;51617;48.158;16.464;2023-04-29T01:44:17;13.80;99.90
65044;DHT22;51617;48.158;16.464;2023-04-29T01:46:52;13.80;99.90
65044;DHT22;51617;48.158;16.464;2023-04-29T01:49:24;13.80;99.90
65044;DHT22;51617;48.158;16.464;2023-04-29T01:51:50;13.80;99.90
65044;DHT22;51617;48.158;16.464;2023-04-29T01:54:15;13.80;99.90
65044;DHT22;51617;48.158;16.464;2023-04-29T01:56:41;13.90;99.90
65044;DHT22;51617;48.158;16.464;2023-04-29T01:59:07;13.80;99.90
65044;DHT22;51617;48.158;16.464;2023-04-29T02:01:33;13.80;99.90
65044;DHT22;51617;48.158;16.464;2023-04-29T02:03:58;13.80;99.90
65044;DHT22;51617;48.158;16.464;2023-04-29T02:06:24;13.80;99.90
65044;DHT22;51617;48.158;16.464;2023-04-29T02:08:50;13.80;99.90
65044;DHT22;51617;48.158;16.464;2023-04-29T02:11:16;13.90;99.90
65044;DHT22;51617;48.158;16.464;2023-04-29T02:13:41;13.90;99.90
65044;DHT22;51617;48.158;16.464;2023-04-29T02:16:07;13.90;99.90
65044;DHT22;51617;48.158;16.464;2023-04-29T02:18:33;13.90;99.90
65044;DHT22;51617;48.158;16.464;2023-04-29T02:20:59;13.90;99.90
65044;DHT22;51617;48.158;16.464;2023-04-29T02:23:26;13.90;99.90
65044;DHT22;51617;48.158;16.464;2023-04-29T02:25:51;13.90;99.90
65044;DHT22;51617;48.158;16.464;2023-04-29T02:28:17;13.90;99.90
65044;DHT22;51617;48.158;16.464;2023-04-29T02:30:43;13.90;99.90
65044;DHT22;51617;48.158;16.464;2023-04-29T02:33:08;13.90;99.90
65044;DHT22;51617;48.158;16.464;2023-04-29T02:35:34;14.00;99.90
65044;DHT22;51617;48.158;16.464;2023-04-29T02:38:00;14.00;99.90
65044;DHT22;51617;48.158;16.464;2023-04-29T02:40:25;14.00;99.90
65044;DHT22;51617;48.158;16.464;2023-04-29T02:42:51;14.00;99.90
65044;DHT22;51617;48.158;16.464;2023-04-29T02:45:17;13.90;99.90
65044;DHT22;51617;48.158;16.464;2023-04-29T02:47:42;13.90;99.90
65044;DHT22;51617;48.158;16.464;2023-04-29T02:50:08;14.00;99.90
65044;DHT22;51617;48.158;16.464;2023-04-29T02:52:34;14.00;99.90
65044;DHT22;51617;48.158;16.464;2023-04-29T02:55:00;14.00;99.90
65044;DHT22;51617;48.158;16.464;2023-04-29T02:57:25;14.00;99.90
65044;DHT22;51617;48.158;16.464;2023-04-29T02:59:51;14.00;99.90
65044;DHT22;51617;48.158;16.464;2023-04-29T03:02:17;14.00;99.90
65044;DHT22;51617;48.158;16.464;2023-04-29T03:04:42;14.00;99.90
65044;DHT22;51617;48.158;16.464;2023-04-29T03:07:08;14.00;99.90
65044;DHT22;51617;48.158;16.464;2023-04-29T03:09:33;13.90;99.90
65044;DHT22;51617;48.158;16.464;2023-04-29T03:11:59;13.90;99.90
65044;DHT22;51617;48.158;16.464;2023-04-29T03:14:25;13.80;99.90
65044;DHT22;51617;48.158;16.464;2023-04-29T03:16:50;13.80;99.90
65044;DHT22;51617;48.158;16.464;2023-04-29T03:19:16;13.70;99.90
65044;DHT22;51617;48.158;16.464;2023-04-29T03:21:41;13.80;99.90
65044;DHT22;51617;48.158;16.464;2023-04-29T03:24:07;13.80;99.90
65044;DHT22;51617;48.158;16.464;2023-04-29T03:26:32;13.70;99.90
65044;DHT22;51617;48.158;16.464;2023-04-29T03:28:58;13.70;99.90
65044;DHT22;51617;48.158;16.464;2023-04-29T03:31:23;13.60;99.90
65044;DHT22;51617;48.158;16.464;2023-04-29T03:33:51;13.60;99.90
65044;DHT22;51617;48.158;16.464;2023-04-29T03:36:17;13.70;99.90
65044;DHT22;51617;48.158;16.464;2023-04-29T03:38:43;13.70;99.90
65044;DHT22;51617;48.158;16.464;2023-04-29T03:41:08;13.70;99.90
65044;DHT22;51617;48.158;16.464;2023-04-29T03:43:34;13.70;99.90
65044;DHT22;51617;48.158;16.464;2023-04-29T03:46:00;13.70;99.90
65044;DHT22;51617;48.158;16.464;2023-04-29T03:48:25;13.80;99.90
65044;DHT22;51617;48.158;16.464;2023-04-29T03:50:51;13.80;99.90
65044;DHT22;51617;48.158;16.464;2023-04-29T03:53:16;13.90;99.90
65044;DHT22;51617;48.158;16.464;2023-04-29T03:55:42;13.80;99.90
65044;DHT22;51617;48.158;16.464;2023-04-29T03:58:08;13.80;99.90
65044;DHT22;51617;48.158;16.464;2023-04-29T04:00:33;13.90;99.90
65044;DHT22;51617;48.158;16.464;2023-04-29T04:02:59;13.90;99.90
65044;DHT22;51617;48.158;16.464;2023-04-29T04:05:25;13.90;99.90
65044;DHT22;51617;48.158;16.464;2023-04-29T04:07:52;13.90;99.90
65044;DHT22;51617;48.158;16.464;2023-04-29T04:10:18;13.80;99.90
65044;DHT22;51617;48.158;16.464;2023-04-29T04:12:43;13.80;99.90
65044;DHT22;51617;48.158;16.464;2023-04-29T04:15:10;13.90;99.90
65044;DHT22;51617;48.158;16.464;2023-04-29T04:17:35;13.90;99.90
65044;DHT22;51617;48.158;16.464;2023-04-29T04:20:01;13.90;99.90
65044;DHT22;51617;48.158;16.464;2023-04-29T04:22:26;14.00;99.90
65044;DHT22;51617;48.158;16.464;2023-04-29T04:24:55;14.00;99.90
65044;DHT22;51617;48.158;16.464;2023-04-29T04:27:20;14.00;99.90
65044;DHT22;51617;48.158;16.464;2023-04-29T04:29:46;14.00;99.90
65044;DHT22;51617;48.158;16.464;2023-04-29T04:32:12;14.10;99.90
65044;DHT22;51617;48.158;16.464;2023-04-29T04:34:37;14.00;99.90
65044;DHT22;51617;48.158;16.464;2023-04-29T04:37:06;13.90;99.90
65044;DHT22;51617;48.158;16.464;2023-04-29T04:39:31;13.90;99.90
65044;DHT22;51617;48.158;16.464;2023-04-29T04:41:57;13.90;99.90
65044;DHT22;51617;48.158;16.464;2023-04-29T04:44:22;13.90;99.90
65044;DHT22;51617;48.158;16.464;2023-04-29T04:46:49;13.90;99.90
65044;DHT22;51617;48.158;16.464;2023-04-29T04:49:15;13.90;99.90
65044;DHT22;51617;48.158;16.464;2023-04-29T04:51:42;13.90;99.90
65044;DHT22;51617;48.158;16.464;2023-04-29T04:54:09;14.00;99.90
65044;DHT22;51617;48.158;16.464;2023-04-29T04:56:34;14.00;99.90
65044;DHT22;51617;48.158;16.464;2023-04-29T04:59:02;14.10;99.90
65044;DHT22;51617;48.158;16.464;2023-04-29T05:01:28;14.10;99.90
65044;DHT22;51617;48.158;16.464;2023-04-29T05:03:53;14.20;99.90
65044;DHT22;51617;48.158;16.464;2023-04-29T05:06:19;14.20;99.90
65044;DHT22;51617;48.158;16.464;2023-04-29T05:08:44;14.20;99.90
65044;DHT22;51617;48.158;16.464;2023-04-29T05:11:16;14.30;99.90
65044;DHT22;51617;48.158;16.464;2023-04-29T05:13:43;14.20;99.90
65044;DHT22;51617;48.158;16.464;2023-04-29T05:16:08;14.30;99.90
65044;DHT22;51617;48.158;16.464;2023-04-29T05:18:34;14.30;99.90
65044;DHT22;51617;48.158;16.464;2023-04-29T05:21:00;14.20;99.90
65044;DHT22;51617;48.158;16.464;2023-04-29T05:23:25;14.30;99.90
65044;DHT22;51617;48.158;16.464;2023-04-29T05:25:52;14.30;99.90
65044;DHT22;51617;48.158;16.464;2023-04-29T05:28:17;14.30;99.90
65044;DHT22;51617;48.158;16.464;2023-04-29T05:30:43;14.40;99.90
65044;DHT22;51617;48.158;16.464;2023-04-29T05:33:09;14.50;99.90
65044;DHT22;51617;48.158;16.464;2023-04-29T05:35:35;14.50;99.90
65044;DHT22;51617;48.158;16.464;2023-04-29T05:38:01;14.50;99.90
65044;DHT22;51617;48.158;16.464;2023-04-29T05:40:27;14.50;99.90
65044;DHT22;51617;48.158;16.464;2023-04-29T05:42:52;14.60;99.90
65044;DHT22;51617;48.158;16.464;2023-04-29T05:45:18;14.60;99.90
65044;DHT22;51617;48.158;16.464;2023-04-29T05:47:43;14.50;99.90
65044;DHT22;51617;48.158;16.464;2023-04-29T05:50:09;14.60;99.90
65044;DHT22;51617;48.158;16.464;2023-04-29T05:52:36;14.60;99.90
65044;DHT22;51617;48.158;16.464;2023-04-29T05:55:01;14.70;99.90
65044;DHT22;51617;48.158;16.464;2023-04-29T05:57:27;14.70;99.90
65044;DHT22;51617;48.158;16.464;2023-04-29T05:59:52;14.60;99.90
65044;DHT22;51617;48.158;16.464;2023-04-29T06:02:21;14.60;99.90
65044;DHT22;51617;48.158;16.464;2023-04-29T06:04:47;14.70;99.90
65044;DHT22;51617;48.158;16.464;2023-04-29T06:07:13;14.80;99.90
65044;DHT22;51617;48.158;16.464;2023-04-29T06:09:38;14.80;99.90
65044;DHT22;51617;48.158;16.464;2023-04-29T06:12:04;14.80;99.90
65044;DHT22;51617;48.158;16.464;2023-04-29T06:14:30;14.80;99.90
65044;DHT22;51617;48.158;16.464;2023-04-29T06:16:55;14.80;99.90
65044;DHT22;51617;48.158;16.464;2023-04-29T06:19:21;14.90;99.90
65044;DHT22;51617;48.158;16.464;2023-04-29T06:21:47;15.00;99.90
65044;DHT22;51617;48.158;16.464;2023-04-29T06:24:12;15.10;99.90
65044;DHT22;51617;48.158;16.464;2023-04-29T06:26:38;15.20;99.90
65044;DHT22;51617;48.158;16.464;2023-04-29T06:29:03;15.30;99.90
65044;DHT22;51617;48.158;16.464;2023-04-29T06:31:29;15.30;99.90
65044;DHT22;51617;48.158;16.464;2023-04-29T06:33:54;15.30;99.90
65044;DHT22;51617;48.158;16.464;2023-04-29T06:36:20;15.30;99.90
65044;DHT22;51617;48.158;16.464;2023-04-29T06:38:46;15.50;99.90
65044;DHT22;51617;48.158;16.464;2023-04-29T06:41:11;15.50;99.90
65044;DHT22;51617;48.158;16.464;2023-04-29T06:43:37;15.60;99.90
65044;DHT22;51617;48.158;16.464;2023-04-29T06:46:02;15.70;99.90
65044;DHT22;51617;48.158;16.464;2023-04-29T06:48:28;15.70;99.90
65044;DHT22;51617;48.158;16.464;2023-04-29T06:50:54;15.70;99.90
65044;DHT22;51617;48.158;16.464;2023-04-29T06:53:20;15.70;99.90
65044;DHT22;51617;48.158;16.464;2023-04-29T06:55:46;15.70;99.90
65044;DHT22;51617;48.158;16.464;2023-04-29T06:58:12;15.60;99.90
65044;DHT22;51617;48.158;16.464;2023-04-29T07:00:38;15.50;99.90
65044;DHT22;51617;48.158;16.464;2023-04-29T07:03:04;15.60;99.90
65044;DHT22;51617;48.158;16.464;2023-04-29T07:05:29;15.70;99.90
65044;DHT22;51617;48.158;16.464;2023-04-29T07:07:55;15.80;99.90
65044;DHT22;51617;48.158;16.464;2023-04-29T07:10:20;16.00;99.90
65044;DHT22;51617;48.158;16.464;2023-04-29T07:12:46;16.00;99.90
65044;DHT22;51617;48.158;16.464;2023-04-29T07:15:11;16.00;99.90
65044;DHT22;51617;48.158;16.464;2023-04-29T07:17:37;16.20;99.90
65044;DHT22;51617;48.158;16.464;2023-04-29T07:20:03;16.20;99.90
65044;DHT22;51617;48.158;16.464;2023-04-29T07:22:28;16.30;99.90
65044;DHT22;51617;48.158;16.464;2023-04-29T07:24:54;16.30;99.90
65044;DHT22;51617;48.158;16.464;2023-04-29T07:27:21;16.30;99.90
65044;DHT22;51617;48.158;16.464;2023-04-29T07:29:46;16.30;99.90
65044;DHT22;51617;48.158;16.464;2023-04-29T07:32:12;16.30;99.90
65044;DHT22;51617;48.158;16.464;2023-04-29T07:34:38;16.40;99.90
65044;DHT22;51617;48.158;16.464;2023-04-29T07:37:03;16.50;99.90
65044;DHT22;51617;48.158;16.464;2023-04-29T07:39:29;16.60;99.90
65044;DHT22;51617;48.158;16.464;2023-04-29T07:41:56;16.70;99.90
65044;DHT22;51617;48.158;16.464;2023-04-29T07:44:21;16.80;99.90
65044;DHT22;51617;48.158;16.464;2023-04-29T07:46:47;16.80;99.90
65044;DHT22;51617;48.158;16.464;2023-04-29T07:49:13;16.90;99.90
65044;DHT22;51617;48.158;16.464;2023-04-29T07:51:41;17.00;99.90
65044;DHT22;51617;48.158;16.464;2023-04-29T07:54:07;17.10;99.80
65044;DHT22;51617;48.158;16.464;2023-04-29T07:56:33;17.10;99.90
65044;DHT22;51617;48.158;16.464;2023-04-29T07:58:58;17.30;99.80
65044;DHT22;51617;48.158;16.464;2023-04-29T08:01:24;17.50;99.60
65044;DHT22;51617;48.158;16.464;2023-04-29T08:03:49;17.60;98.40
65044;DHT22;51617;48.158;16.464;2023-04-29T08:06:15;17.50;98.60
65044;DHT22;51617;48.158;16.464;2023-04-29T08:08:42;17.50;98.10
65044;DHT22;51617;48.158;16.464;2023-04-29T08:11:14;17.50;98.20
65044;DHT22;51617;48.158;16.464;2023-04-29T08:13:39;17.60;98.00
65044;DHT22;51617;48.158;16.464;2023-04-29T08:16:05;17.70;98.30
65044;DHT22;51617;48.158;16.464;2023-04-29T08:18:30;17.90;98.50
65044;DHT22;51617;48.158;16.464;2023-04-29T08:20:56;17.90;97.70
65044;DHT22;51617;48.158;16.464;2023-04-29T08:23:21;18.00;97.90
65044;DHT22;51617;48.158;16.464;2023-04-29T08:25:47;18.30;98.00
65044;DHT22;51617;48.158;16.464;2023-04-29T08:28:16;18.40;97.10
65044;DHT22;51617;48.158;16.464;2023-04-29T08:30:41;18.50;97.20
65044;DHT22;51617;48.158;16.464;2023-04-29T08:33:07;18.80;97.20
65044;DHT22;51617;48.158;16.464;2023-04-29T08:35:33;19.00;96.50
65044;DHT22;51617;48.158;16.464;2023-04-29T08:38:02;19.20;96.20
65044;DHT22;51617;48.158;16.464;2023-04-29T08:40:29;19.40;96.40
65044;DHT22;51617;48.158;16.464;2023-04-29T08:42:54;19.70;96.20
65044;DHT22;51617;48.158;16.464;2023-04-29T08:45:21;20.00;96.20
65044;DHT22;51617;48.158;16.464;2023-04-29T08:47:49;20.10;95.80
65044;DHT22;51617;48.158;16.464;2023-04-29T08:50:15;20.10;95.50
65044;DHT22;51617;48.158;16.464;2023-04-29T08:52:41;20.20;95.40
65044;DHT22;51617;48.158;16.464;2023-04-29T08:55:07;20.30;95.70
65044;DHT22;51617;48.158;16.464;2023-04-29T08:57:34;20.40;95.50
65044;DHT22;51617;48.158;16.464;2023-04-29T09:00:04;20.60;94.90
65044;DHT22;51617;48.158;16.464;2023-04-29T09:02:31;20.60;94.40
65044;DHT22;51617;48.158;16.464;2023-04-29T09:05:03;20.60;94.70
65044;DHT22;51617;48.158;16.464;2023-04-29T09:07:30;20.50;94.90
65044;DHT22;51617;48.158;16.464;2023-04-29T09:09:56;20.50;94.90
65044;DHT22;51617;48.158;16.464;2023-04-29T09:12:23;20.20;94.60
65044;DHT22;51617;48.158;16.464;2023-04-29T09:14:48;20.00;95.00
65044;DHT22;51617;48.158;16.464;2023-04-29T09:17:14;19.70;95.40
65044;DHT22;51617;48.158;16.464;2023-04-29T09:19:40;19.50;95.40
65044;DHT22;51617;48.158;16.464;2023-04-29T09:22:06;19.30;95.70
65044;DHT22;51617;48.158;16.464;2023-04-29T09:24:32;19.20;96.50
65044;DHT22;51617;48.158;16.464;2023-04-29T09:26:58;19.00;97.00
65044;DHT22;51617;48.158;16.464;2023-04-29T09:29:24;18.70;97.50
65044;DHT22;51617;48.158;16.464;2023-04-29T09:31:49;18.50;97.80
65044;DHT22;51617;48.158;16.464;2023-04-29T09:34:18;18.30;98.20
65044;DHT22;51617;48.158;16.464;2023-04-29T09:36:54;18.10;98.30
65044;DHT22;51617;48.158;16.464;2023-04-29T09:39:23;18.00;98.60
65044;DHT22;51617;48.158;16.464;2023-04-29T09:44:14;17.90;99.80
65044;DHT22;51617;48.158;16.464;2023-04-29T09:46:40;17.90;99.90
65044;DHT22;51617;48.158;16.464;2023-04-29T09:49:25;18.10;99.90
65044;DHT22;51617;48.158;16.464;2023-04-29T09:51:52;18.30;99.90
65044;DHT22;51617;48.158;16.464;2023-04-29T09:54:21;18.50;99.90
65044;DHT22;51617;48.158;16.464;2023-04-29T09:56:48;18.50;99.90
65044;DHT22;51617;48.158;16.464;2023-04-29T09:59:13;18.50;99.90
65044;DHT22;51617;48.158;16.464;2023-04-29T10:01:39;18.40;99.70
65044;DHT22;51617;48.158;16.464;2023-04-29T10:04:05;18.30;99.50
65044;DHT22;51617;48.158;16.464;2023-04-29T10:06:32;17.90;99.80
65044;DHT22;51617;48.158;16.464;2023-04-29T10:08:58;17.70;99.90
65044;DHT22;51617;48.158;16.464;2023-04-29T10:11:24;17.70;99.90
65044;DHT22;51617;48.158;16.464;2023-04-29T10:13:51;17.70;99.90
65044;DHT22;51617;48.158;16.464;2023-04-29T10:18:51;18.10;99.90
65044;DHT22;51617;48.158;16.464;2023-04-29T10:21:17;18.50;99.90
65044;DHT22;51617;48.158;16.464;2023-04-29T10:23:46;18.80;99.90
65044;DHT22;51617;48.158;16.464;2023-04-29T10:26:12;19.10;99.90
65044;DHT22;51617;48.158;16.464;2023-04-29T10:28:39;19.40;99.40
65044;DHT22;51617;48.158;16.464;2023-04-29T10:31:04;19.60;99.40
65044;DHT22;51617;48.158;16.464;2023-04-29T10:33:31;19.70;98.90
65044;DHT22;51617;48.158;16.464;2023-04-29T10:36:00;20.00;98.90
65044;DHT22;51617;48.158;16.464;2023-04-29T10:38:27;20.30;98.10
65044;DHT22;51617;48.158;16.464;2023-04-29T10:40:54;20.30;97.40
65044;DHT22;51617;48.158;16.464;2023-04-29T10:43:26;20.10;97.50
65044;DHT22;51617;48.158;16.464;2023-04-29T10:48:36;20.00;97.20
65044;DHT22;51617;48.158;16.464;2023-04-29T10:51:01;20.00;97.30
65044;DHT22;51617;48.158;16.464;2023-04-29T10:53:27;20.10;97.40
65044;DHT22;51617;48.158;16.464;2023-04-29T10:55:57;20.20;97.00
65044;DHT22;51617;48.158;16.464;2023-04-29T10:58:36;20.30;96.80
65044;DHT22;51617;48.158;16.464;2023-04-29T11:01:03;20.40;96.40
65044;DHT22;51617;48.158;16.464;2023-04-29T11:06:13;20.30;97.10
65044;DHT22;51617;48.158;16.464;2023-04-29T11:08:39;20.30;96.90
65044;DHT22;51617;48.158;16.464;2023-04-29T11:11:05;20.40;96.70
65044;DHT22;51617;48.158;16.464;2023-04-29T11:13:31;20.50;96.60
65044;DHT22;51617;48.158;16.464;2023-04-29T11:16:05;20.80;95.60
65044;DHT22;51617;48.158;16.464;2023-04-29T11:18:31;20.80;94.60
65044;DHT22;51617;48.158;16.464;2023-04-29T11:23:37;20.90;94.50
65044;DHT22;51617;48.158;16.464;2023-04-29T11:26:03;21.10;94.80
65044;DHT22;51617;48.158;16.464;2023-04-29T11:28:29;21.20;95.00
65044;DHT22;51617;48.158;16.464;2023-04-29T11:30:55;21.30;94.90
65044;DHT22;51617;48.158;16.464;2023-04-29T11:33:25;21.40;94.90
65044;DHT22;51617;48.158;16.464;2023-04-29T11:35:55;21.40;94.80
65044;DHT22;51617;48.158;16.464;2023-04-29T11:38:24;21.40;95.20
65044;DHT22;51617;48.158;16.464;2023-04-29T11:40:50;21.40;95.00
65044;DHT22;51617;48.158;16.464;2023-04-29T11:43:16;21.30;94.80
65044;DHT22;51617;48.158;16.464;2023-04-29T11:45:43;21.10;94.60
65044;DHT22;51617;48.158;16.464;2023-04-29T11:48:08;21.00;94.40
65044;DHT22;51617;48.158;16.464;2023-04-29T11:50:34;20.80;94.20
65044;DHT22;51617;48.158;16.464;2023-04-29T11:53:00;20.70;94.10
65044;DHT22;51617;48.158;16.464;2023-04-29T11:55:26;20.70;94.40
65044;DHT22;51617;48.158;16.464;2023-04-29T11:57:51;20.90;94.30
65044;DHT22;51617;48.158;16.464;2023-04-29T12:00:17;21.00;94.10
65044;DHT22;51617;48.158;16.464;2023-04-29T12:02:43;21.10;94.30
65044;DHT22;51617;48.158;16.464;2023-04-29T12:05:10;21.10;94.50
65044;DHT22;51617;48.158;16.464;2023-04-29T12:07:37;21.10;94.50
65044;DHT22;51617;48.158;16.464;2023-04-29T12:10:06;21.10;94.30
65044;DHT22;51617;48.158;16.464;2023-04-29T12:12:32;20.90;94.50
65044;DHT22;51617;48.158;16.464;2023-04-29T12:15:01;20.90;94.80
65044;DHT22;51617;48.158;16.464;2023-04-29T12:17:28;20.80;94.70
65044;DHT22;51617;48.158;16.464;2023-04-29T12:19:54;20.70;94.70
65044;DHT22;51617;48.158;16.464;2023-04-29T12:22:19;20.50;94.90
65044;DHT22;51617;48.158;16.464;2023-04-29T12:24:45;20.40;95.40
65044;DHT22;51617;48.158;16.464;2023-04-29T12:27:11;20.20;95.40
65044;DHT22;51617;48.158;16.464;2023-04-29T12:29:37;20.10;95.50
65044;DHT22;51617;48.158;16.464;2023-04-29T12:32:02;19.90;95.70
65044;DHT22;51617;48.158;16.464;2023-04-29T12:34:28;19.80;95.70
65044;DHT22;51617;48.158;16.464;2023-04-29T12:36:57;19.80;96.30
65044;DHT22;51617;48.158;16.464;2023-04-29T12:39:24;19.70;96.30
65044;DHT22;51617;48.158;16.464;2023-04-29T12:41:56;19.60;96.20
65044;DHT22;51617;48.158;16.464;2023-04-29T12:44:22;19.60;96.40
65044;DHT22;51617;48.158;16.464;2023-04-29T12:46:47;19.60;96.60
65044;DHT22;51617;48.158;16.464;2023-04-29T12:49:13;19.50;96.70
65044;DHT22;51617;48.158;16.464;2023-04-29T12:51:38;19.40;97.10
65044;DHT22;51617;48.158;16.464;2023-04-29T12:54:05;19.30;97.30
65044;DHT22;51617;48.158;16.464;2023-04-29T12:56:31;19.30;97.20
65044;DHT22;51617;48.158;16.464;2023-04-29T12:59:07;19.10;97.10
65044;DHT22;51617;48.158;16.464;2023-04-29T13:01:32;19.00;97.50
65044;DHT22;51617;48.158;16.464;2023-04-29T13:03:58;18.80;97.70
65044;DHT22;51617;48.158;16.464;2023-04-29T13:06:24;18.70;98.30
65044;DHT22;51617;48.158;16.464;2023-04-29T13:08:49;18.40;98.90
65044;DHT22;51617;48.158;16.464;2023-04-29T13:11:16;18.30;99.40
65044;DHT22;51617;48.158;16.464;2023-04-29T13:13:41;18.10;99.90
65044;DHT22;51617;48.158;16.464;2023-04-29T13:16:07;18.10;99.90
65044;DHT22;51617;48.158;16.464;2023-04-29T13:18:32;18.20;99.90
65044;DHT22;51617;48.158;16.464;2023-04-29T13:20:58;18.40;99.90
65044;DHT22;51617;48.158;16.464;2023-04-29T13:23:23;18.60;99.90
65044;DHT22;51617;48.158;16.464;2023-04-29T13:25:49;18.80;99.90
65044;DHT22;51617;48.158;16.464;2023-04-29T13:28:15;19.10;99.90
65044;DHT22;51617;48.158;16.464;2023-04-29T13:30:40;19.30;99.70
65044;DHT22;51617;48.158;16.464;2023-04-29T13:33:06;19.40;99.50
65044;DHT22;51617;48.158;16.464;2023-04-29T13:35:32;19.50;99.80
65044;DHT22;51617;48.158;16.464;2023-04-29T13:38:00;19.50;99.30
65044;DHT22;51617;48.158;16.464;2023-04-29T13:40:26;19.70;99.20
65044;DHT22;51617;48.158;16.464;2023-04-29T13:42:52;19.80;99.10
65044;DHT22;51617;48.158;16.464;2023-04-29T13:45:17;20.00;98.90
65044;DHT22;51617;48.158;16.464;2023-04-29T13:47:43;20.00;98.20
65044;DHT22;51617;48.158;16.464;2023-04-29T13:50:09;20.20;97.70
65044;DHT22;51617;48.158;16.464;2023-04-29T13:52:34;20.30;97.70
65044;DHT22;51617;48.158;16.464;2023-04-29T13:55:00;20.70;96.40
65044;DHT22;51617;48.158;16.464;2023-04-29T13:57:26;21.00;95.90
65044;DHT22;51617;48.158;16.464;2023-04-29T13:59:52;21.10;94.50
65044;DHT22;51617;48.158;16.464;2023-04-29T14:02:19;21.20;93.20
65044;DHT22;51617;48.158;16.464;2023-04-29T14:04:45;21.20;94.20
65044;DHT22;51617;48.158;16.464;2023-04-29T14:07:10;21.20;94.90
65044;DHT22;51617;48.158;16.464;2023-04-29T14:09:36;21.10;94.80
65044;DHT22;51617;48.158;16.464;2023-04-29T14:12:02;20.90;94.40
65044;DHT22;51617;48.158;16.464;2023-04-29T14:14:27;20.70;94.50
65044;DHT22;51617;48.158;16.464;2023-04-29T14:16:53;20.60;94.80
65044;DHT22;51617;48.158;16.464;2023-04-29T14:19:18;20.40;95.60
65044;DHT22;51617;48.158;16.464;2023-04-29T14:21:44;20.40;96.10
65044;DHT22;51617;48.158;16.464;2023-04-29T14:24:09;20.30;96.90
65044;DHT22;51617;48.158;16.464;2023-04-29T14:26:35;20.30;97.50
65044;DHT22;51617;48.158;16.464;2023-04-29T14:29:01;20.20;97.40
65044;DHT22;51617;48.158;16.464;2023-04-29T14:31:27;20.00;97.40
65044;DHT22;51617;48.158;16.464;2023-04-29T14:33:53;19.80;96.60
65044;DHT22;51617;48.158;16.464;2023-04-29T14:36:19;19.70;97.10
65044;DHT22;51617;48.158;16.464;2023-04-29T14:38:45;19.60;97.60
65044;DHT22;51617;48.158;16.464;2023-04-29T14:41:10;19.40;97.60
65044;DHT22;51617;48.158;16.464;2023-04-29T14:43:36;19.30;97.60
65044;DHT22;51617;48.158;16.464;2023-04-29T14:46:01;19.30;97.70
65044;DHT22;51617;48.158;16.464;2023-04-29T14:48:27;19.30;97.50
65044;DHT22;51617;48.158;16.464;2023-04-29T14:50:53;19.30;96.60
65044;DHT22;51617;48.158;16.464;2023-04-29T14:53:19;19.40;96.60
65044;DHT22;51617;48.158;16.464;2023-04-29T14:55:45;19.50;96.50
65044;DHT22;51617;48.158;16.464;2023-04-29T14:58:11;19.60;96.60
65044;DHT22;51617;48.158;16.464;2023-04-29T15:00:37;19.90;96.50
65044;DHT22;51617;48.158;16.464;2023-04-29T15:03:03;20.00;95.70
65044;DHT22;51617;48.158;16.464;2023-04-29T15:05:29;19.90;94.80
65044;DHT22;51617;48.158;16.464;2023-04-29T15:07:55;19.60;95.10
65044;DHT22;51617;48.158;16.464;2023-04-29T15:10:22;19.40;95.40
65044;DHT22;51617;48.158;16.464;2023-04-29T15:12:48;19.30;95.50
65044;DHT22;51617;48.158;16.464;2023-04-29T15:15:15;19.20;95.80
65044;DHT22;51617;48.158;16.464;2023-04-29T15:17:41;19.10;96.10
65044;DHT22;51617;48.158;16.464;2023-04-29T15:20:06;19.20;96.10
65044;DHT22;51617;48.158;16.464;2023-04-29T15:22:32;19.30;96.40
65044;DHT22;51617;48.158;16.464;2023-04-29T15:24:57;19.40;96.30
65044;DHT22;51617;48.158;16.464;2023-04-29T15:27:23;19.70;96.20
65044;DHT22;51617;48.158;16.464;2023-04-29T15:29:49;19.80;96.10
65044;DHT22;51617;48.158;16.464;2023-04-29T15:32:17;19.80;96.10
65044;DHT22;51617;48.158;16.464;2023-04-29T15:34:42;19.80;95.90
65044;DHT22;51617;48.158;16.464;2023-04-29T15:37:08;19.60;95.60